METAR Data
IDs: Format: Raw Decoded Include TAF

Data at: 1924 UTC 12 Dec 2018

METAR for:KDAY (Dayton/Cox Intl, OH, US)
Text:KDAY 121856Z 20010KT 10SM OVC065 07/M02 A2989 RMK AO2 SLP130 BINOVC T00721017
Temperature: 7.2°C ( 45°F)
Dewpoint: -1.7°C ( 29°F) [RH = 53%]
Pressure (altimeter):29.89 inches Hg (1012.3 mb) [Sea level pressure: 1013.0 mb]
Winds:from the SSW (200 degrees) at 12 MPH (10 knots; 5.1 m/s)
Visibility:10 or more sm (16+ km)
Ceiling:6500 feet AGL
Clouds: overcast cloud deck at 6500 feet AGL